createdAt,value
2022-12-03T00:00:54.968Z,21.55
2022-12-03T00:01:56.690Z,22.92
2022-12-03T00:02:58.477Z,30.27
2022-12-03T00:04:00.355Z,52.95
2022-12-03T00:05:02.138Z,51.50
2022-12-03T00:06:03.853Z,37.20
2022-12-03T00:07:05.546Z,25.40
2022-12-03T00:08:07.220Z,24.50
2022-12-03T00:09:08.907Z,23.38
2022-12-03T00:10:11.713Z,23.67
2022-12-03T00:11:13.385Z,22.65
2022-12-03T00:12:15.083Z,23.40
2022-12-03T00:13:16.800Z,21.85
2022-12-03T00:14:18.485Z,21.90
2022-12-03T00:15:20.198Z,21.85
2022-12-03T00:16:21.978Z,22.02
2022-12-03T00:17:23.734Z,21.63
2022-12-03T00:18:25.452Z,22.15
2022-12-03T00:19:27.110Z,20.92
2022-12-03T00:20:28.790Z,21.48
2022-12-03T00:21:30.461Z,22.05
2022-12-03T00:22:32.116Z,20.05
2022-12-03T00:23:37.201Z,20.05
2022-12-03T00:24:43.341Z,19.55
2022-12-03T00:25:45.062Z,20.92
2022-12-03T00:26:46.742Z,21.77
2022-12-03T00:27:48.402Z,23.52
2022-12-03T00:28:50.208Z,23.70
2022-12-03T00:29:51.869Z,30.02
2022-12-03T00:30:54.280Z,24.92
2022-12-03T00:31:56.033Z,21.60
2022-12-03T00:32:57.683Z,21.30
2022-12-03T00:33:59.410Z,20.45
2022-12-03T00:35:01.056Z,21.42
2022-12-03T00:36:02.741Z,30.67
2022-12-03T00:37:04.407Z,34.67
2022-12-03T00:38:06.109Z,26.98
2022-12-03T00:39:07.769Z,22.50
2022-12-03T00:40:11.177Z,22.23
2022-12-03T00:41:13.232Z,22.23
2022-12-03T00:42:14.920Z,19.48
2022-12-03T00:43:16.593Z,18.45
2022-12-03T00:44:18.307Z,18.50
2022-12-03T00:45:20.043Z,15.23
2022-12-03T00:46:21.973Z,16.15
2022-12-03T00:47:23.754Z,16.40
2022-12-03T00:48:25.436Z,17.38
2022-12-03T00:49:27.113Z,16.25
2022-12-03T00:50:28.894Z,19.35
2022-12-03T00:51:30.682Z,19.23
2022-12-03T00:52:32.532Z,18.55
2022-12-03T00:53:34.261Z,17.23
2022-12-03T00:54:35.916Z,16.92
2022-12-03T00:55:37.635Z,17.35
2022-12-03T00:56:39.275Z,17.83
2022-12-03T00:57:40.939Z,24.00
2022-12-03T00:58:42.612Z,19.40
2022-12-03T00:59:44.279Z,17.02
2022-12-03T01:00:45.957Z,17.45
2022-12-03T01:01:47.768Z,18.75
2022-12-03T01:02:49.445Z,18.10
2022-12-03T01:03:51.110Z,16.33
2022-12-03T01:04:53.044Z,17.85
2022-12-03T01:05:55.017Z,17.95
2022-12-03T01:06:56.742Z,17.17
2022-12-03T01:07:58.491Z,18.85
2022-12-03T01:09:00.307Z,18.40
2022-12-03T01:10:03.701Z,21.05
2022-12-03T01:11:25.430Z,21.10
2022-12-03T01:12:27.101Z,20.08
2022-12-03T01:13:28.794Z,18.27
2022-12-03T01:14:30.664Z,16.85
2022-12-03T01:15:32.410Z,18.45
2022-12-03T01:16:34.626Z,18.95
2022-12-03T01:17:36.601Z,18.33
2022-12-03T01:18:38.248Z,17.00
2022-12-03T01:19:46.545Z,16.33
2022-12-03T01:20:49.821Z,17.25
2022-12-03T01:21:52.054Z,15.55
2022-12-03T01:22:53.921Z,14.85
2022-12-03T01:23:55.742Z,15.45
2022-12-03T01:24:57.461Z,16.33
2022-12-03T01:25:59.090Z,15.55
2022-12-03T01:27:01.103Z,16.58
2022-12-03T01:28:02.797Z,16.88
2022-12-03T01:29:05.095Z,18.55
2022-12-03T01:30:09.557Z,18.20
2022-12-03T01:31:29.806Z,16.65
2022-12-03T01:32:31.532Z,18.10
2022-12-03T01:33:33.183Z,17.38
2022-12-03T01:34:34.930Z,18.58
2022-12-03T01:35:36.581Z,18.65
2022-12-03T01:36:38.234Z,20.50
2022-12-03T01:37:39.923Z,21.33
2022-12-03T01:38:41.568Z,22.10
2022-12-03T01:39:43.334Z,20.92
2022-12-03T01:40:45.035Z,21.30
2022-12-03T01:41:48.903Z,19.75
2022-12-03T01:42:50.612Z,21.27
2022-12-03T01:43:53.468Z,21.50
2022-12-03T01:44:57.710Z,21.00
2022-12-03T01:45:59.435Z,22.35
2022-12-03T01:47:04.554Z,22.67
2022-12-03T01:48:06.515Z,21.92
2022-12-03T01:49:15.306Z,23.65
2022-12-03T01:50:33.383Z,21.08
2022-12-03T01:51:35.055Z,23.05
2022-12-03T01:52:39.366Z,23.90
2022-12-03T01:53:41.751Z,23.05
2022-12-03T01:55:04.830Z,22.83
2022-12-03T01:56:07.096Z,22.63
2022-12-03T01:57:22.080Z,21.30
2022-12-03T01:58:28.556Z,20.45
2022-12-03T01:59:37.460Z,21.52
2022-12-03T02:00:39.181Z,20.70
2022-12-03T02:01:40.886Z,22.35
2022-12-03T02:02:42.779Z,21.50
2022-12-03T02:03:46.186Z,21.90
2022-12-03T02:04:48.361Z,23.75
2022-12-03T02:05:50.515Z,24.05
2022-12-03T02:06:52.513Z,22.85
2022-12-03T02:07:55.231Z,22.90
2022-12-03T02:08:59.785Z,23.35
2022-12-03T02:10:03.825Z,23.83
2022-12-03T02:11:30.034Z,24.38
2022-12-03T02:12:50.420Z,26.35
2022-12-03T02:13:55.335Z,28.40
2022-12-03T02:14:57.153Z,28.92
2022-12-03T02:15:59.084Z,27.98
2022-12-03T02:17:00.943Z,21.58
2022-12-03T02:18:03.131Z,22.02
2022-12-03T02:19:13.229Z,22.00
2022-12-03T02:20:15.275Z,22.35
2022-12-03T02:21:38.520Z,21.25
2022-12-03T02:23:10.655Z,20.35
2022-12-03T02:24:21.533Z,19.52
2022-12-03T02:25:29.346Z,18.92
2022-12-03T02:26:31.055Z,18.90
2022-12-03T02:27:32.815Z,20.05
2022-12-03T02:28:34.607Z,18.30
2022-12-03T02:29:39.991Z,18.48
2022-12-03T02:30:41.847Z,18.23
2022-12-03T02:31:44.171Z,21.40
2022-12-03T02:32:47.141Z,20.65
2022-12-03T02:33:48.978Z,19.20
2022-12-03T02:34:51.932Z,19.48
2022-12-03T02:35:55.286Z,19.77
2022-12-03T02:36:58.609Z,18.95
2022-12-03T02:38:08.331Z,19.35
2022-12-03T02:39:10.051Z,18.58
2022-12-03T02:40:17.063Z,18.30
2022-12-03T02:41:39.422Z,19.30
2022-12-03T02:42:42.321Z,17.35
2022-12-03T02:43:44.013Z,17.60
2022-12-03T02:44:45.682Z,17.30
2022-12-03T02:45:50.718Z,15.88
2022-12-03T02:46:52.444Z,15.30
2022-12-03T02:48:06.832Z,15.68
2022-12-03T02:49:08.575Z,15.15
2022-12-03T02:50:13.041Z,15.60
2022-12-03T02:51:14.761Z,16.42
2022-12-03T02:52:16.567Z,17.98
2022-12-03T02:53:23.320Z,17.60
2022-12-03T02:54:25.024Z,17.42
2022-12-03T02:55:31.976Z,16.48
2022-12-03T02:56:38.137Z,17.27
2022-12-03T02:57:40.657Z,17.33
2022-12-03T02:58:45.168Z,16.58
2022-12-03T02:59:46.972Z,18.08
2022-12-03T03:00:50.101Z,17.92
2022-12-03T03:01:51.973Z,17.92
2022-12-03T03:02:53.813Z,18.33
2022-12-03T03:03:56.593Z,16.95
2022-12-03T03:04:58.355Z,16.48
2022-12-03T03:06:02.749Z,17.90
2022-12-03T03:07:04.675Z,17.08
2022-12-03T03:08:09.118Z,16.17
2022-12-03T03:09:10.889Z,15.38
2022-12-03T03:10:15.315Z,15.20
2022-12-03T03:11:17.109Z,16.10
2022-12-03T03:12:18.878Z,15.30
2022-12-03T03:13:21.275Z,14.23
2022-12-03T03:14:22.937Z,15.85
2022-12-03T03:15:25.562Z,15.48
2022-12-03T03:16:27.452Z,15.02
2022-12-03T03:17:29.182Z,15.43
2022-12-03T03:18:31.483Z,15.27
2022-12-03T03:19:33.343Z,14.55
2022-12-03T03:20:36.004Z,14.68
2022-12-03T03:21:37.943Z,15.07
2022-12-03T03:22:42.009Z,15.80
2022-12-03T03:23:43.695Z,14.38
2022-12-03T03:24:45.745Z,14.73
2022-12-03T03:25:51.889Z,13.30
2022-12-03T03:26:53.728Z,14.32
2022-12-03T03:27:55.412Z,14.27
2022-12-03T03:29:00.301Z,14.48
2022-12-03T03:30:02.072Z,14.68
2022-12-03T03:31:05.512Z,15.27
2022-12-03T03:32:07.289Z,17.10
2022-12-03T03:33:09.988Z,15.88
2022-12-03T03:34:12.152Z,16.88
2022-12-03T03:35:14.830Z,16.92
2022-12-03T03:36:17.097Z,17.58
2022-12-03T03:37:19.045Z,18.60
2022-12-03T03:38:22.697Z,18.42
2022-12-03T03:39:24.803Z,19.38
2022-12-03T03:40:27.315Z,17.98
2022-12-03T03:41:30.100Z,18.45
2022-12-03T03:42:31.859Z,17.80
2022-12-03T03:43:35.792Z,19.38
2022-12-03T03:44:37.801Z,18.83
2022-12-03T03:46:42.793Z,18.85
2022-12-03T03:47:45.149Z,18.17
2022-12-03T03:48:48.663Z,18.75
2022-12-03T03:49:50.981Z,17.42
2022-12-03T03:50:53.308Z,18.42
2022-12-03T03:51:55.661Z,17.73
2022-12-03T03:52:58.692Z,19.33
2022-12-03T03:54:01.626Z,19.63
2022-12-03T03:55:04.475Z,18.80
2022-12-03T03:56:07.268Z,18.13
2022-12-03T03:57:08.977Z,19.10
2022-12-03T03:58:11.239Z,19.80
2022-12-03T03:59:14.184Z,19.42
2022-12-03T04:00:16.123Z,19.00
2022-12-03T04:01:18.523Z,19.92
2022-12-03T04:02:23.028Z,17.95
2022-12-03T04:03:24.722Z,18.55
2022-12-03T04:04:27.505Z,21.13
2022-12-03T04:05:29.316Z,21.55
2022-12-03T04:06:30.946Z,20.73
2022-12-03T04:07:32.631Z,20.95
2022-12-03T04:08:34.360Z,25.05
2022-12-03T04:09:36.018Z,24.48
2022-12-03T04:10:56.557Z,22.10
2022-12-03T04:12:16.797Z,19.70
2022-12-03T04:13:18.437Z,18.13
2022-12-03T04:14:20.148Z,19.02
2022-12-03T04:15:22.031Z,19.83
2022-12-03T04:16:23.783Z,17.70
2022-12-03T04:17:25.593Z,22.95
2022-12-03T04:18:45.558Z,18.58
2022-12-03T04:19:47.211Z,17.80
2022-12-03T04:20:48.861Z,20.95
2022-12-03T04:22:09.455Z,22.35
2022-12-03T04:23:11.192Z,22.27
2022-12-03T04:24:13.166Z,23.52
2022-12-03T04:25:33.381Z,22.13
2022-12-03T04:26:54.214Z,22.17
2022-12-03T04:28:14.721Z,23.90
2022-12-03T04:29:16.434Z,23.00
2022-12-03T04:30:18.161Z,22.50
2022-12-03T04:31:38.794Z,23.02
2022-12-03T04:32:58.824Z,23.80
2022-12-03T04:34:19.274Z,22.58
2022-12-03T04:35:39.387Z,24.65
2022-12-03T04:36:41.120Z,24.02
2022-12-03T04:37:42.827Z,23.33
2022-12-03T04:38:44.480Z,24.50
2022-12-03T04:39:46.186Z,24.88
2022-12-03T04:41:04.402Z,24.67
2022-12-03T04:42:06.663Z,23.20
2022-12-03T04:43:08.325Z,24.48
2022-12-03T04:44:28.494Z,24.30
2022-12-03T04:45:30.232Z,25.35
2022-12-03T04:46:32.083Z,25.08
2022-12-03T04:47:38.458Z,26.10
2022-12-03T04:48:41.595Z,24.27
2022-12-03T04:49:48.197Z,26.15
2022-12-03T04:50:49.927Z,24.95
2022-12-03T04:51:51.671Z,23.80
2022-12-03T04:52:53.337Z,23.92
2022-12-03T04:53:55.000Z,22.75
2022-12-03T04:54:56.937Z,20.38
2022-12-03T04:55:58.668Z,19.58
2022-12-03T04:57:00.547Z,19.55
2022-12-03T04:58:02.213Z,18.23
2022-12-03T04:59:03.895Z,20.23
2022-12-03T05:00:06.171Z,19.25
2022-12-03T05:01:07.897Z,18.02
2022-12-03T05:02:09.977Z,18.70
2022-12-03T05:03:11.766Z,18.73
2022-12-03T05:04:14.795Z,21.00
2022-12-03T05:05:17.260Z,20.75
2022-12-03T05:06:18.920Z,20.42
2022-12-03T05:07:20.564Z,20.58
2022-12-03T05:08:22.207Z,20.83
2022-12-03T05:09:23.848Z,24.38
2022-12-03T05:10:25.743Z,84.30
2022-12-03T05:11:27.529Z,129.48
2022-12-03T05:12:29.185Z,47.72
2022-12-03T05:13:30.847Z,28.10
2022-12-03T05:14:32.569Z,26.58
2022-12-03T05:15:34.218Z,27.15
2022-12-03T05:16:36.453Z,26.85
2022-12-03T05:17:38.137Z,24.75
2022-12-03T05:18:39.821Z,27.80
2022-12-03T05:20:00.184Z,26.08
2022-12-03T05:21:01.859Z,25.27
2022-12-03T05:22:03.527Z,25.75
2022-12-03T05:23:05.199Z,26.52
2022-12-03T05:24:07.116Z,26.45
2022-12-03T05:25:09.089Z,25.90
2022-12-03T05:26:11.316Z,27.25
2022-12-03T05:27:12.956Z,27.90
2022-12-03T05:28:14.809Z,26.92
2022-12-03T05:29:16.525Z,29.88
2022-12-03T05:30:18.209Z,27.30
2022-12-03T05:31:19.937Z,29.17
2022-12-03T05:32:22.180Z,28.13
2022-12-03T05:33:23.832Z,28.58
2022-12-03T05:34:25.501Z,29.67
2022-12-03T05:35:27.951Z,30.63
2022-12-03T05:36:29.574Z,30.67
2022-12-03T05:37:31.249Z,31.00
2022-12-03T05:38:32.960Z,31.08
2022-12-03T05:39:34.726Z,29.35
2022-12-03T05:40:36.431Z,29.85
2022-12-03T05:41:56.696Z,30.02
2022-12-03T05:42:58.529Z,29.17
2022-12-03T05:44:00.188Z,32.85
2022-12-03T05:45:01.879Z,31.98
2022-12-03T05:46:03.572Z,31.05
2022-12-03T05:47:05.312Z,30.92
2022-12-03T05:48:10.291Z,27.63
2022-12-03T05:49:11.936Z,29.40
2022-12-03T05:50:13.893Z,31.27
2022-12-03T05:51:15.591Z,31.75
2022-12-03T05:52:17.234Z,28.55
2022-12-03T05:53:18.899Z,28.75
2022-12-03T05:54:20.602Z,29.02
2022-12-03T05:55:23.061Z,28.65
2022-12-03T05:56:24.782Z,30.17
2022-12-03T05:57:26.422Z,30.77
2022-12-03T05:58:28.078Z,29.13
2022-12-03T05:59:29.735Z,32.15
2022-12-03T06:00:37.672Z,34.10
2022-12-03T06:01:42.308Z,32.25
2022-12-03T06:02:44.533Z,29.33
2022-12-03T06:03:46.429Z,29.85
2022-12-03T06:04:48.313Z,28.48
2022-12-03T06:05:49.964Z,27.63
2022-12-03T06:06:51.626Z,31.58
2022-12-03T06:07:53.619Z,31.98
2022-12-03T06:08:55.348Z,32.13
2022-12-03T06:09:57.001Z,32.83
2022-12-03T06:10:58.626Z,29.77
2022-12-03T06:12:00.980Z,28.45
2022-12-03T06:13:03.425Z,31.52
2022-12-03T06:14:05.077Z,30.30
2022-12-03T06:15:07.545Z,31.65
2022-12-03T06:16:09.282Z,34.28
2022-12-03T06:17:10.995Z,30.48
2022-12-03T06:18:12.691Z,30.52
2022-12-03T06:19:14.337Z,30.38
2022-12-03T06:20:18.757Z,31.92
2022-12-03T06:21:20.437Z,31.33
2022-12-03T06:22:22.105Z,31.17
2022-12-03T06:23:23.752Z,30.80
2022-12-03T06:24:25.392Z,31.55
2022-12-03T06:25:27.076Z,31.40
2022-12-03T06:26:30.215Z,34.25
2022-12-03T06:27:31.868Z,30.80
2022-12-03T06:28:33.532Z,27.95
2022-12-03T06:29:35.219Z,27.98
2022-12-03T06:30:36.951Z,29.17
2022-12-03T06:31:38.637Z,28.42
2022-12-03T06:32:40.751Z,29.50
2022-12-03T06:33:42.529Z,26.73
2022-12-03T06:34:44.220Z,26.83
2022-12-03T06:35:45.868Z,26.73
2022-12-03T06:36:47.753Z,26.40
2022-12-03T06:37:49.482Z,25.98
2022-12-03T06:38:51.189Z,26.02
2022-12-03T06:39:52.938Z,26.20
2022-12-03T06:41:09.718Z,26.42
2022-12-03T06:42:11.414Z,26.92
2022-12-03T06:43:13.070Z,26.17
2022-12-03T06:44:15.064Z,26.88
2022-12-03T06:45:16.801Z,25.70
2022-12-03T06:46:18.613Z,29.67
2022-12-03T06:47:20.500Z,28.30
2022-12-03T06:48:22.248Z,26.77
2022-12-03T06:49:23.961Z,26.23
2022-12-03T06:50:25.643Z,25.83
2022-12-03T06:51:27.313Z,28.77
2022-12-03T06:52:28.990Z,28.13
2022-12-03T06:53:30.680Z,26.75
2022-12-03T06:54:32.375Z,29.27
2022-12-03T06:55:34.009Z,30.17
2022-12-03T06:56:40.379Z,30.73
2022-12-03T06:57:46.430Z,30.30
2022-12-03T06:58:48.091Z,31.80
2022-12-03T06:59:49.785Z,30.55
2022-12-03T07:00:51.423Z,31.08
2022-12-03T07:01:53.121Z,29.33
2022-12-03T07:02:54.847Z,30.77
2022-12-03T07:03:56.535Z,33.10
2022-12-03T07:04:58.437Z,32.53
2022-12-03T07:06:00.427Z,32.67
2022-12-03T07:07:02.129Z,30.90
2022-12-03T07:08:04.030Z,30.50
2022-12-03T07:09:05.825Z,31.50
2022-12-03T07:10:08.006Z,33.22
2022-12-03T07:11:29.976Z,30.20
2022-12-03T07:12:32.904Z,33.20
2022-12-03T07:13:34.549Z,32.05
2022-12-03T07:14:36.200Z,33.00
2022-12-03T07:15:37.843Z,34.33
2022-12-03T07:16:40.053Z,32.45
2022-12-03T07:17:41.809Z,32.45
2022-12-03T07:18:43.456Z,34.92
2022-12-03T07:19:45.137Z,33.95
2022-12-03T07:20:46.792Z,33.38
2022-12-03T07:21:48.726Z,32.10
2022-12-03T07:22:50.383Z,33.25
2022-12-03T07:23:52.017Z,33.72
2022-12-03T07:24:53.905Z,33.83
2022-12-03T07:25:55.704Z,34.50
2022-12-03T07:26:57.394Z,34.75
2022-12-03T07:27:59.065Z,33.47
2022-12-03T07:29:00.785Z,34.42
2022-12-03T07:30:02.427Z,35.42
2022-12-03T07:31:04.133Z,32.28
2022-12-03T07:32:06.099Z,33.78
2022-12-03T07:33:07.737Z,33.38
2022-12-03T07:34:09.436Z,32.38
2022-12-03T07:35:11.122Z,32.85
2022-12-03T07:36:12.864Z,34.08
2022-12-03T07:37:18.656Z,33.30
2022-12-03T07:38:23.286Z,33.33
2022-12-03T07:39:24.948Z,32.22
2022-12-03T07:40:26.581Z,33.67
2022-12-03T07:41:28.212Z,32.22
2022-12-03T07:42:29.943Z,32.45
2022-12-03T07:43:31.709Z,33.47
2022-12-03T07:44:33.512Z,33.55
2022-12-03T07:45:35.206Z,35.42
2022-12-03T07:46:36.939Z,35.80
2022-12-03T07:47:38.591Z,36.35
2022-12-03T07:48:40.512Z,35.00
2022-12-03T07:49:42.157Z,33.53
2022-12-03T07:50:43.877Z,33.03
2022-12-03T07:51:54.288Z,30.70
2022-12-03T07:52:56.192Z,29.70
2022-12-03T07:53:57.849Z,32.10
2022-12-03T07:54:59.508Z,29.58
2022-12-03T07:56:01.138Z,30.58
2022-12-03T07:57:02.919Z,30.58
2022-12-03T07:58:04.722Z,32.75
2022-12-03T07:59:06.404Z,33.17
2022-12-03T08:00:08.441Z,32.92
2022-12-03T08:01:10.584Z,31.23
2022-12-03T08:02:15.625Z,30.80
2022-12-03T08:03:21.293Z,32.30
2022-12-03T08:04:22.963Z,34.38
2022-12-03T08:05:24.643Z,33.47
2022-12-03T08:06:26.280Z,32.13
2022-12-03T08:07:28.000Z,33.15
2022-12-03T08:08:29.663Z,30.35
2022-12-03T08:09:31.652Z,30.10
2022-12-03T08:10:33.308Z,31.50
2022-12-03T08:11:35.018Z,29.25
2022-12-03T08:12:41.885Z,30.50
2022-12-03T08:13:43.657Z,29.10
2022-12-03T08:14:45.398Z,30.45
2022-12-03T08:15:47.223Z,30.30
2022-12-03T08:16:48.979Z,28.85
2022-12-03T08:17:56.872Z,31.92
2022-12-03T08:18:58.559Z,33.03
2022-12-03T08:20:00.212Z,32.85
2022-12-03T08:21:01.901Z,34.60
2022-12-03T08:22:11.519Z,35.13
2022-12-03T08:23:16.039Z,32.40
2022-12-03T08:24:18.938Z,33.90
2022-12-03T08:25:32.739Z,34.08
2022-12-03T08:26:34.517Z,33.10
2022-12-03T08:27:36.172Z,33.75
2022-12-03T08:28:37.835Z,32.47
2022-12-03T08:29:39.529Z,33.25
2022-12-03T08:30:42.955Z,33.20
2022-12-03T08:31:54.948Z,32.45
2022-12-03T08:32:59.226Z,34.00
2022-12-03T08:34:15.745Z,32.92
2022-12-03T08:35:27.534Z,32.88
2022-12-03T08:36:33.677Z,31.70
2022-12-03T08:37:36.281Z,33.33
2022-12-03T08:38:37.976Z,30.92
2022-12-03T08:39:45.481Z,30.30
2022-12-03T08:40:49.421Z,27.83
2022-12-03T08:42:15.169Z,29.90
2022-12-03T08:43:16.798Z,30.05
2022-12-03T08:44:28.225Z,29.27
2022-12-03T08:45:30.425Z,28.58
2022-12-03T08:46:32.145Z,30.80
2022-12-03T08:47:33.822Z,29.55
2022-12-03T08:48:40.689Z,30.08
2022-12-03T08:49:51.671Z,29.35
2022-12-03T08:50:58.787Z,31.35
2022-12-03T08:52:01.997Z,31.05
2022-12-03T08:53:15.645Z,30.95
2022-12-03T08:54:20.223Z,28.27
2022-12-03T08:55:39.270Z,31.05
2022-12-03T08:56:41.597Z,30.65
2022-12-03T08:57:43.929Z,30.08
2022-12-03T08:58:48.247Z,31.88
2022-12-03T08:59:54.383Z,30.40
2022-12-03T09:01:07.235Z,31.13
2022-12-03T09:02:23.010Z,31.02
2022-12-03T09:03:24.981Z,29.25
2022-12-03T09:04:45.804Z,29.45
2022-12-03T09:05:47.488Z,30.15
2022-12-03T09:06:49.269Z,31.08
2022-12-03T09:07:51.034Z,28.92
2022-12-03T09:08:52.820Z,28.73
2022-12-03T09:09:54.885Z,30.10
2022-12-03T09:10:56.941Z,28.40
2022-12-03T09:11:58.721Z,29.50
2022-12-03T09:13:00.365Z,28.40
2022-12-03T09:14:02.089Z,29.80
2022-12-03T09:15:04.540Z,29.95
2022-12-03T09:16:06.640Z,30.75
2022-12-03T09:17:08.523Z,31.13
2022-12-03T09:18:10.250Z,30.40
2022-12-03T09:19:11.956Z,30.35
2022-12-03T09:20:13.633Z,28.25
2022-12-03T09:21:15.332Z,31.27
2022-12-03T09:22:17.490Z,30.65
2022-12-03T09:23:19.155Z,31.35
2022-12-03T09:24:21.492Z,31.20
2022-12-03T09:25:23.141Z,30.35
2022-12-03T09:26:24.846Z,29.90
2022-12-03T09:27:26.607Z,29.33
2022-12-03T09:28:28.304Z,31.50
2022-12-03T09:29:29.967Z,33.22
2022-12-03T09:30:31.728Z,31.05
2022-12-03T09:31:34.461Z,30.83
2022-12-03T09:32:36.251Z,31.40
2022-12-03T09:33:37.935Z,29.77
2022-12-03T09:34:39.782Z,27.55
2022-12-03T09:35:41.423Z,28.25
2022-12-03T09:36:43.083Z,26.92
2022-12-03T09:37:44.747Z,25.98
2022-12-03T09:38:48.261Z,25.67
2022-12-03T09:39:50.179Z,23.95
2022-12-03T09:40:52.590Z,28.85
2022-12-03T09:41:55.576Z,30.08
2022-12-03T09:43:01.008Z,26.85
2022-12-03T09:44:04.364Z,28.17
2022-12-03T09:45:13.155Z,27.50
2022-12-03T09:46:15.035Z,27.88
2022-12-03T09:47:17.011Z,27.38
2022-12-03T09:48:20.153Z,28.08
2022-12-03T09:49:22.030Z,26.00
2022-12-03T09:50:26.532Z,25.20
2022-12-03T09:51:33.566Z,25.60
2022-12-03T09:52:35.320Z,25.13
2022-12-03T09:53:41.328Z,26.02
2022-12-03T09:54:47.329Z,24.63
2022-12-03T09:55:50.059Z,24.30
2022-12-03T09:56:53.665Z,24.20
2022-12-03T09:57:56.904Z,24.20
2022-12-03T09:58:59.193Z,23.85
2022-12-03T10:00:01.124Z,23.65
2022-12-03T10:01:02.829Z,23.83
2022-12-03T10:02:21.360Z,25.25
2022-12-03T10:03:30.130Z,25.88
2022-12-03T10:04:32.041Z,24.02
2022-12-03T10:05:34.952Z,25.52
2022-12-03T10:06:40.980Z,27.27
2022-12-03T10:07:46.289Z,24.80
2022-12-03T10:08:51.037Z,23.50
2022-12-03T10:09:53.288Z,22.63
2022-12-03T10:10:56.780Z,22.85
2022-12-03T10:11:59.857Z,22.85
2022-12-03T10:13:02.325Z,23.17
2022-12-03T10:14:04.969Z,23.85
2022-12-03T10:15:10.055Z,24.67
2022-12-03T10:16:15.532Z,22.27
2022-12-03T10:17:17.585Z,21.52
2022-12-03T10:18:23.305Z,20.95
2022-12-03T10:19:29.262Z,19.65
2022-12-03T10:20:30.912Z,19.25
2022-12-03T10:21:37.058Z,18.98
2022-12-03T10:22:38.728Z,19.67
2022-12-03T10:23:40.983Z,19.00
2022-12-03T10:24:44.976Z,20.05
2022-12-03T10:25:55.521Z,17.77
2022-12-03T10:27:00.002Z,17.83
2022-12-03T10:28:06.658Z,17.67
2022-12-03T10:29:19.881Z,17.88
2022-12-03T10:30:23.469Z,18.52
2022-12-03T10:31:35.526Z,18.20
2022-12-03T10:32:43.265Z,18.10
2022-12-03T10:33:47.362Z,18.20
2022-12-03T10:34:49.030Z,18.42
2022-12-03T10:35:50.677Z,19.38
2022-12-03T10:37:22.610Z,18.90
2022-12-03T10:38:24.545Z,16.95
2022-12-03T10:39:26.213Z,19.40
2022-12-03T10:40:32.308Z,18.85
2022-12-03T10:41:34.073Z,19.13
2022-12-03T10:42:38.516Z,18.55
2022-12-03T10:43:40.166Z,18.02
2022-12-03T10:44:41.802Z,19.58
2022-12-03T10:45:48.402Z,18.67
2022-12-03T10:47:11.686Z,18.92
2022-12-03T10:48:30.707Z,17.85
2022-12-03T10:49:32.442Z,18.20
2022-12-03T10:50:35.518Z,18.00
2022-12-03T10:51:39.326Z,19.88
2022-12-03T10:52:41.119Z,17.45
2022-12-03T10:53:43.097Z,16.88
2022-12-03T10:54:44.781Z,17.52
2022-12-03T10:55:48.479Z,18.20
2022-12-03T10:56:52.575Z,19.40
2022-12-03T10:57:54.223Z,18.48
2022-12-03T10:58:56.097Z,18.63
2022-12-03T10:59:58.321Z,17.27
2022-12-03T11:01:03.594Z,16.42
2022-12-03T11:02:18.015Z,17.00
2022-12-03T11:03:25.311Z,17.42
2022-12-03T11:04:34.326Z,15.88
2022-12-03T11:05:35.966Z,17.95
2022-12-03T11:06:37.673Z,16.92
2022-12-03T11:07:39.731Z,16.92
2022-12-03T11:08:44.974Z,15.75
2022-12-03T11:09:51.213Z,16.05
2022-12-03T11:11:16.485Z,16.58
2022-12-03T11:12:19.994Z,14.90
2022-12-03T11:13:33.528Z,15.07
2022-12-03T11:14:54.544Z,16.98
2022-12-03T11:15:57.194Z,16.67
2022-12-03T11:16:58.889Z,16.65
2022-12-03T11:18:00.806Z,17.25
2022-12-03T11:19:03.340Z,17.55
2022-12-03T11:20:09.156Z,17.10
2022-12-03T11:21:12.922Z,15.35
2022-12-03T11:22:14.519Z,16.90
2022-12-03T11:23:44.841Z,16.38
2022-12-03T11:24:47.632Z,17.25
2022-12-03T11:25:50.732Z,17.38
2022-12-03T11:26:52.448Z,18.02
2022-12-03T11:28:12.703Z,17.95
2022-12-03T11:29:14.846Z,18.42
2022-12-03T11:30:51.701Z,18.25
2022-12-03T11:31:53.447Z,16.05
2022-12-03T11:32:55.041Z,17.10
2022-12-03T11:34:18.506Z,15.23
2022-12-03T11:35:35.956Z,17.23
2022-12-03T11:37:12.464Z,17.85
2022-12-03T11:38:53.496Z,17.80
2022-12-03T11:39:55.844Z,17.35
2022-12-03T11:41:14.929Z,18.73
2022-12-03T11:42:28.644Z,16.92
2022-12-03T11:43:52.161Z,16.67
2022-12-03T11:45:05.830Z,16.17
2022-12-03T11:46:10.319Z,16.45
2022-12-03T11:47:16.489Z,16.08
2022-12-03T11:48:18.892Z,16.00
2022-12-03T11:49:45.232Z,16.92
2022-12-03T11:50:52.775Z,17.40
2022-12-03T11:51:54.687Z,17.33
2022-12-03T11:53:18.926Z,17.15
2022-12-03T11:54:23.375Z,16.95
2022-12-03T11:55:35.823Z,17.98
2022-12-03T11:56:45.034Z,17.23
2022-12-03T11:57:46.730Z,17.75
2022-12-03T11:58:48.663Z,17.77
2022-12-03T12:00:24.828Z,18.52
2022-12-03T12:01:39.242Z,20.67
2022-12-03T12:02:41.209Z,21.13
2022-12-03T12:03:50.372Z,20.75
2022-12-03T12:04:52.109Z,19.50
2022-12-03T12:06:14.392Z,19.75
2022-12-03T12:07:39.650Z,18.88
2022-12-03T12:08:56.579Z,17.40
2022-12-03T12:09:58.545Z,17.48
2022-12-03T12:11:01.229Z,17.35
2022-12-03T12:12:19.781Z,17.55
2022-12-03T12:13:33.386Z,16.75
2022-12-03T12:14:35.094Z,17.02
2022-12-03T12:15:39.606Z,15.77
2022-12-03T12:16:46.087Z,15.05
2022-12-03T12:17:47.914Z,15.05
2022-12-03T12:18:55.083Z,15.02
2022-12-03T12:20:27.033Z,15.95
2022-12-03T12:21:47.901Z,15.25
2022-12-03T12:22:50.273Z,15.52
2022-12-03T12:23:52.213Z,18.23
2022-12-03T12:24:58.448Z,18.45
2022-12-03T12:26:07.281Z,18.73
2022-12-03T12:27:11.930Z,20.05
2022-12-03T12:28:13.704Z,18.48
2022-12-03T12:29:15.340Z,19.02
2022-12-03T12:30:19.905Z,18.63
2022-12-03T12:31:21.717Z,20.45
2022-12-03T12:32:35.383Z,19.63
2022-12-03T12:33:37.073Z,18.60
2022-12-03T12:34:40.841Z,20.90
2022-12-03T12:35:42.581Z,19.83
2022-12-03T12:36:47.192Z,18.73
2022-12-03T12:38:00.084Z,18.38
2022-12-03T12:39:07.483Z,19.80
2022-12-03T12:40:15.883Z,18.05
2022-12-03T12:41:17.608Z,18.90
2022-12-03T12:42:33.195Z,19.52
2022-12-03T12:43:36.082Z,16.90
2022-12-03T12:44:37.736Z,16.67
2022-12-03T12:45:42.118Z,16.55
2022-12-03T12:46:47.987Z,16.08
2022-12-03T12:48:17.840Z,15.57
2022-12-03T12:49:23.582Z,14.32
2022-12-03T12:50:25.231Z,13.15
2022-12-03T12:51:26.917Z,13.38
2022-12-03T12:52:28.851Z,12.77
2022-12-03T12:53:35.797Z,13.15
2022-12-03T12:54:38.003Z,12.02
2022-12-03T12:55:43.474Z,12.18
2022-12-03T12:56:50.364Z,12.23
2022-12-03T12:57:52.103Z,11.10
2022-12-03T12:58:54.417Z,12.18
2022-12-03T12:59:56.414Z,10.88
2022-12-03T13:01:01.287Z,11.02
2022-12-03T13:02:08.590Z,11.18
2022-12-03T13:03:14.249Z,11.85
2022-12-03T13:04:20.328Z,11.25
2022-12-03T13:05:22.060Z,12.20
2022-12-03T13:06:28.796Z,11.13
2022-12-03T13:07:31.970Z,10.88
2022-12-03T13:08:47.213Z,10.05
2022-12-03T13:09:54.807Z,9.88
2022-12-03T13:10:58.959Z,11.07
2022-12-03T13:12:04.166Z,9.82
2022-12-03T13:13:17.724Z,9.65
2022-12-03T13:14:22.562Z,10.05
2022-12-03T13:15:48.991Z,10.18
2022-12-03T13:16:52.574Z,9.68
2022-12-03T13:17:54.309Z,10.25
2022-12-03T13:18:58.548Z,10.18
2022-12-03T13:20:07.470Z,10.25
2022-12-03T13:21:29.940Z,9.68
2022-12-03T13:22:31.611Z,9.77
2022-12-03T13:23:35.323Z,9.90
2022-12-03T13:24:43.015Z,10.20
2022-12-03T13:26:00.594Z,9.80
2022-12-03T13:27:23.191Z,8.98
2022-12-03T13:28:25.345Z,9.80
2022-12-03T13:29:27.896Z,9.15
2022-12-03T13:30:30.405Z,9.63
2022-12-03T13:31:39.471Z,9.00
2022-12-03T13:32:45.078Z,9.60
2022-12-03T13:33:46.810Z,8.98
2022-12-03T13:34:50.825Z,9.50
2022-12-03T13:35:54.511Z,9.13
2022-12-03T13:36:58.294Z,10.23
2022-12-03T13:38:00.408Z,10.60
2022-12-03T13:39:08.720Z,10.23
2022-12-03T13:40:31.448Z,9.93
2022-12-03T13:41:52.053Z,9.27
2022-12-03T13:42:55.019Z,10.43
2022-12-03T13:43:57.043Z,10.43
2022-12-03T13:44:59.652Z,8.75
2022-12-03T13:46:01.466Z,9.75
2022-12-03T13:47:13.577Z,9.48
2022-12-03T13:48:31.354Z,9.65
2022-12-03T13:49:34.858Z,9.40
2022-12-03T13:50:39.016Z,9.10
2022-12-03T13:51:42.879Z,9.27
2022-12-03T13:52:44.529Z,8.63
2022-12-03T13:53:46.211Z,9.40
2022-12-03T13:54:53.271Z,9.15
2022-12-03T13:56:30.541Z,8.63